HSKO2: Arkansas River, Haskell, OK

                                SHEF ID:       HSKO2     Arkansas River near Haskell, OK
STATION TYPE:
Regulating: Stage = 18.00, Flow = 125429

PRECIP STAGE STAGE(2) RIV-FLOW BAT-LOAD
in ft ft cfs volt
Ccp-Rev Ccp-Rev Ccp-Rev Ccp-Rev Ccp-Rev
(America/Chicago)
04/28 00:00 0.00 5.48 5.52 7571 12.65
04/28 01:00 0.00 5.50 5.51 7654 12.65
04/28 02:00 0.00 5.49 5.51 7613 12.65
04/28 03:00 0.00 5.49 5.52 7613 12.65
04/28 04:00 0.00 5.49 5.51 7613 12.57
04/28 05:00 0.00 5.49 5.50 7613 12.57
04/28 06:00 0.00 5.50 5.50 7654 12.57
04/28 07:00 0.00 5.49 5.52 7613 12.49
04/28 08:00 0.00 5.49 5.50 7613 12.49
04/28 09:00 0.00 5.46 5.52 7489 12.73
04/28 10:00 0.00 5.45 5.49 7448 13.37
04/28 11:00 0.00 5.44 5.47 7407 13.44
04/28 12:00 0.05 5.40 5.46 7245 13.29
04/28 13:00 0.00 5.36 5.40 7085 13.37
04/28 14:00 0.00 5.30 5.38 6863 13.29
04/28 15:00 0.00 5.24 5.31 6648 13.21
04/28 16:00 0.00 5.19 5.25 6471 13.13
04/28 17:00 1.24 5.18 5.26 6436 12.97
04/28 18:00 0.00 5.10 5.20 6158 13.05
04/28 19:00 0.00 5.07 5.11 6056 13.05
04/28 20:00 0.00 5.01 5.07 5855 12.97
04/28 21:00 0.00 4.99 5.06 5792 12.73
04/28 22:00 0.00 5.00 5.03 5821 12.65
04/28 23:00 0.00 4.97 5.00 5734 12.65
Data processed at Wed 29Apr2026 04:13 GMT

NOTICE: If you are parsing this page

Please convert to using our Data API. Starting early 2026 we will be migrating to: https://water.usace.army.mil with modern pages rendered in JavaScript. When this migration completes you will no longer be able to scrape this page! CWMSDataAPI (CDA)

Timeseries IDs (TSIDs)

TSIDs used from left to right in the data table
HASK.Precip-Inc.Total.1Hour.1Hour.Ccp-Rev
HASK.Stage.Inst.1Hour.0.Ccp-Rev
HASK.Stage-Alt.Inst.1Hour.0.Ccp-Rev
HASK.Flow.Inst.1Hour.0.Ccp-Rev
HASK.Volt-Battery Load.Inst.1Hour.0.Ccp-Rev

                            

All information presented herein is the property of the government of the United States of America and may be revised or deleted at any time without prior notice. Dissemination of this information without the expressed written consent of the Public Affairs Office, Tulsa District U.S. Army Corps of Engineers is strictly prohibited. These data are gathered electronically and, as presented, have NOT undergone any form of quality control. These data are NOT guaranteed to be valid or correct.